Time;durP1;ratioP1;P1;durP2;ratioP2;P2;SDS_P1;SDS_P2;PMS_P1;PMS_P2;Temp;Humidity;BMP_temperature;BMP_pressure;BME280_temperature;BME280_humidity;BME280_pressure;Samples;Min_cycle;Max_cycle;Signal;HPM_P1;HPM_P2
2022/12/16 00:01:17;;;;;;;27.00;15.90;;;;;;;-6.96;83.11;100316.17;105532;1292;71201;-73
2022/12/16 00:03:49;;;;;;;31.90;17.00;;;;;;;-6.99;82.97;100314.89;105586;1291;71631;-74
2022/12/16 00:06:18;;;;;;;32.70;17.00;;;;;;;-7.02;82.81;100314.73;105540;1292;62010;-74
2022/12/16 00:08:45;;;;;;;29.70;18.20;;;;;;;-7.06;82.60;100317.00;105648;1284;59704;-74
2022/12/16 00:11:12;;;;;;;27.80;16.90;;;;;;;-7.10;82.58;100318.73;105619;1290;73488;-73
2022/12/16 00:13:39;;;;;;;27.70;16.60;;;;;;;-7.16;82.42;100316.09;105550;1277;71026;-73
2022/12/16 00:16:08;;;;;;;32.80;17.70;;;;;;;-7.24;82.34;100311.61;105677;1288;72470;-74
2022/12/16 00:18:35;;;;;;;34.60;18.20;;;;;;;-7.26;82.46;100312.59;105504;1291;60380;-74
2022/12/16 00:21:02;;;;;;;31.30;17.70;;;;;;;-7.28;82.92;100306.15;105545;1286;58975;-74
2022/12/16 00:23:29;;;;;;;30.50;18.00;;;;;;;-7.28;83.00;100302.89;105527;1291;73478;-73
2022/12/16 00:25:57;;;;;;;30.80;17.10;;;;;;;-7.31;82.54;100305.24;105708;1284;68812;-73
2022/12/16 00:28:23;;;;;;;32.40;18.70;;;;;;;-7.34;82.75;100307.47;105577;1286;71741;-73
2022/12/16 00:30:52;;;;;;;35.90;18.80;;;;;;;-7.36;82.54;100310.30;105696;1288;62059;-73
2022/12/16 00:33:22;;;;;;;30.50;17.00;;;;;;;-7.39;82.86;100309.04;105542;1298;60521;-73
2022/12/16 00:35:50;;;;;;;31.40;17.30;;;;;;;-7.42;82.69;100316.73;105583;1291;74896;-74
2022/12/16 00:38:17;;;;;;;30.50;17.30;;;;;;;-7.45;82.67;100315.98;105541;1293;69534;-73
2022/12/16 00:40:44;;;;;;;28.70;16.90;;;;;;;-7.47;82.83;100318.16;105511;1293;73171;-73
2022/12/16 00:43:10;;;;;;;30.60;17.60;;;;;;;-7.49;82.78;100317.42;105605;1284;59540;-74
2022/12/16 00:45:38;;;;;;;31.20;17.50;;;;;;;-7.53;82.49;100322.58;105729;1285;59018;-73
2022/12/16 00:48:05;;;;;;;33.30;18.20;;;;;;;-7.63;82.24;100320.58;105672;1285;72871;-73
2022/12/16 00:50:33;;;;;;;29.20;16.60;;;;;;;-7.67;82.44;100323.52;105741;1285;69317;-73
2022/12/16 00:52:59;;;;;;;32.00;17.80;;;;;;;-7.68;82.90;100327.70;105538;1291;72612;-73
2022/12/16 00:55:26;;;;;;;30.00;17.10;;;;;;;-7.68;82.79;100323.40;105740;1290;59036;-73
2022/12/16 00:57:52;;;;;;;29.20;16.90;;;;;;;-7.67;83.30;100325.44;105671;1286;59643;-73
2022/12/16 01:00:21;;;;;;;32.60;17.90;;;;;;;-7.67;83.57;100327.12;105769;1291;74760;-73
2022/12/16 01:02:49;;;;;;;31.30;18.00;;;;;;;-7.67;83.22;100328.69;105522;1292;71097;-73
2022/12/16 01:05:19;;;;;;;30.70;17.90;;;;;;;-7.67;83.12;100325.92;105559;1293;72260;-73
2022/12/16 01:07:46;;;;;;;29.80;17.00;;;;;;;-7.66;83.37;100327.44;105606;1292;61931;-73
2022/12/16 01:10:13;;;;;;;29.50;17.20;;;;;;;-7.66;83.36;100327.98;105685;1291;59707;-73
2022/12/16 01:12:39;;;;;;;34.30;18.40;;;;;;;-7.68;83.23;100334.73;105733;1290;73160;-73
2022/12/16 01:15:07;;;;;;;49.60;21.90;;;;;;;-7.69;83.10;100339.24;105799;1282;58753;-73
2022/12/16 01:17:34;;;;;;;33.90;18.30;;;;;;;-7.71;83.07;100338.84;105610;1291;71399;-73
2022/12/16 01:20:01;;;;;;;36.50;18.80;;;;;;;-7.74;83.23;100339.66;105579;1285;64270;-73
2022/12/16 01:22:31;;;;;;;33.60;18.00;;;;;;;-7.80;83.35;100338.84;105642;1292;59634;-74
2022/12/16 01:24:58;;;;;;;32.70;17.30;;;;;;;-7.82;83.25;100340.16;105563;1284;74464;-74
2022/12/16 01:27:26;;;;;;;30.20;17.90;;;;;;;-7.84;83.14;100344.34;105607;1290;69102;-73
2022/12/16 01:29:52;;;;;;;32.00;16.50;;;;;;;-7.85;83.47;100344.40;105632;1284;72887;-73
2022/12/16 01:32:21;;;;;;;27.60;16.20;;;;;;;-7.86;83.45;100344.95;105636;1290;59532;-73
2022/12/16 01:34:52;;;;;;;29.30;17.10;;;;;;;-7.87;83.54;100347.73;105678;1290;59028;-73
2022/12/16 01:37:21;;;;;;;26.30;15.60;;;;;;;-7.90;83.68;100349.05;105612;1290;75641;-73
2022/12/16 01:39:48;;;;;;;27.30;16.70;;;;;;;-7.91;83.43;100348.95;105579;1291;70884;-73
2022/12/16 01:42:16;;;;;;;27.70;16.10;;;;;;;-7.91;83.49;100355.64;105593;1294;59292;-74
2022/12/16 01:44:44;;;;;;;31.40;17.50;;;;;;;-7.91;83.25;100358.41;105676;1294;62715;-74
2022/12/16 01:47:19;;;;;;;28.10;17.00;;;;;;;-7.96;83.35;100362.21;105474;1291;59701;-74
2022/12/16 01:49:52;;;;;;;30.50;17.20;;;;;;;-8.02;83.16;100363.84;105617;1289;73518;-73
2022/12/16 01:52:35;;;;;;;30.40;16.80;;;;;;;-8.05;83.64;100359.67;105710;1292;71158;-73
2022/12/16 01:55:11;;;;;;;28.70;16.80;;;;;;;-8.08;83.30;100356.90;105689;1289;72931;-73
2022/12/16 01:57:49;;;;;;;36.00;17.50;;;;;;;-8.09;83.46;100358.66;105683;1289;61742;-73
2022/12/16 02:00:16;;;;;;;29.20;16.90;;;;;;;-8.09;83.49;100358.48;105666;1294;59067;-73
2022/12/16 02:02:45;;;;;;;33.70;17.40;;;;;;;-8.12;83.25;100361.16;105737;1287;72343;-73
2022/12/16 02:05:20;;;;;;;31.90;18.00;;;;;;;-8.16;83.10;100366.85;105647;1291;71538;-73
2022/12/16 02:08:21;;;;;;;31.00;17.40;;;;;;;-8.21;83.09;100369.58;105746;1284;71136;-73
2022/12/16 02:11:13;;;;;;;42.30;20.10;;;;;;;-8.22;83.21;100369.10;105456;1299;61992;-73
2022/12/16 02:13:48;;;;;;;33.20;17.60;;;;;;;-8.21;83.75;100366.84;105731;1292;59221;-73
2022/12/16 02:16:19;;;;;;;29.70;16.40;;;;;;;-8.20;83.65;100363.73;105680;1291;74788;-73
2022/12/16 02:18:55;;;;;;;27.70;16.30;;;;;;;-8.19;83.71;100365.41;105433;1283;337444;-73
2022/12/16 02:21:30;;;;;;;28.00;15.90;;;;;;;-8.20;83.50;100361.65;105724;1292;72513;-73
2022/12/16 02:24:21;;;;;;;25.70;15.70;;;;;;;-8.21;83.51;100362.73;105577;1293;61775;-72
2022/12/16 02:26:47;;;;;;;28.20;16.00;;;;;;;-8.26;82.74;100357.95;105724;1297;58887;-73
2022/12/16 02:29:51;;;;;;;29.20;15.90;;;;;;;-8.29;82.80;100361.19;105703;1280;59595;-72
2022/12/16 02:32:29;;;;;;;25.60;14.90;;;;;;;-8.34;82.76;100358.65;105728;1291;70665;-72
2022/12/16 02:35:37;;;;;;;27.40;15.30;;;;;;;-8.39;82.88;100360.38;105640;1290;72452;-73
2022/12/16 02:38:10;;;;;;;26.90;15.30;;;;;;;-8.42;82.58;100359.71;105718;1291;59402;-72
2022/12/16 02:40:55;;;;;;;27.30;14.50;;;;;;;-8.45;82.73;100354.67;105607;1276;58931;-72
2022/12/16 02:43:40;;;;;;;27.90;15.50;;;;;;;-8.47;83.03;100359.05;105751;1290;76091;-73
2022/12/16 02:46:07;;;;;;;27.50;16.20;;;;;;;-8.48;83.07;100363.19;105714;1292;69296;-73
2022/12/16 02:48:34;;;;;;;26.40;15.40;;;;;;;-8.48;83.51;100359.92;105631;1291;72899;-73
2022/12/16 02:51:00;;;;;;;29.20;16.70;;;;;;;-8.48;83.15;100356.67;105658;1291;60696;-73
2022/12/16 02:53:29;;;;;;;26.60;15.60;;;;;;;-8.48;83.43;100356.50;105640;1287;59034;-73
2022/12/16 02:56:05;;;;;;;27.60;15.30;;;;;;;-8.48;83.38;100355.13;105689;1291;73721;-73
2022/12/16 02:58:38;;;;;;;29.40;15.50;;;;;;;-8.49;83.04;100350.04;105618;1292;70346;-73
2022/12/16 03:01:45;;;;;;;28.00;15.90;;;;;;;-8.51;83.19;100352.16;105696;1291;71101;-73
2022/12/16 03:04:18;;;;;;;27.50;15.90;;;;;;;-8.53;83.22;100358.44;105549;1297;61203;-72
2022/12/16 03:06:48;;;;;;;25.90;15.40;;;;;;;-8.55;83.20;100359.17;105638;1291;59109;-72
2022/12/16 03:09:20;;;;;;;27.00;15.60;;;;;;;-8.58;83.01;100358.63;105665;1284;73844;-72
2022/12/16 03:11:49;;;;;;;28.20;15.50;;;;;;;-8.63;83.35;100355.21;105577;1292;72085;-73
2022/12/16 03:14:18;;;;;;;28.00;16.40;;;;;;;-8.62;83.36;100362.02;105691;1290;71409;-73
2022/12/16 03:16:46;;;;;;;27.00;15.60;;;;;;;-8.64;83.18;100355.06;105566;1293;59700;-72
2022/12/16 03:19:13;;;;;;;23.80;15.10;;;;;;;-8.66;83.11;100356.52;105444;1291;59374;-73
2022/12/16 03:21:50;;;;;;;26.60;15.70;;;;;;;-8.67;82.79;100359.66;105710;1291;73089;-73
2022/12/16 03:24:16;;;;;;;27.60;15.80;;;;;;;-8.70;82.81;100360.48;105725;1291;68964;-73
2022/12/16 03:27:10;;;;;;;25.60;14.70;;;;;;;-8.73;83.16;100364.55;105665;1290;59624;-73
2022/12/16 03:29:48;;;;;;;29.30;15.60;;;;;;;-8.77;82.93;100365.05;105517;1290;60103;-73
2022/12/16 03:32:27;;;;;;;27.60;15.60;;;;;;;-8.82;82.96;100363.49;105576;1294;59250;-73
2022/12/16 03:35:10;;;;;;;29.20;16.00;;;;;;;-8.85;83.00;100365.33;105666;1290;73159;-72
2022/12/16 03:37:38;;;;;;;29.20;16.20;;;;;;;-8.87;83.28;100367.45;105592;1291;70985;-73
2022/12/16 03:40:07;;;;;;;25.80;15.40;;;;;;;-8.87;83.33;100367.47;105516;1295;72537;-72
2022/12/16 03:42:35;;;;;;;26.50;15.80;;;;;;;-8.84;83.44;100366.51;105557;1294;61791;-72
2022/12/16 03:45:05;;;;;;;27.40;15.60;;;;;;;-8.82;83.43;100362.50;105488;1296;59018;-73
2022/12/16 03:47:31;;;;;;;29.20;16.60;;;;;;;-8.82;83.30;100362.14;105536;1292;73995;-72
2022/12/16 03:49:58;;;;;;;28.70;15.70;;;;;;;-8.80;83.26;100368.22;105720;1291;59380;-72
2022/12/16 03:52:24;;;;;;;29.20;16.80;;;;;;;-8.80;83.28;100369.27;105726;1290;59047;-72
2022/12/16 03:54:50;;;;;;;27.90;15.90;;;;;;;-8.80;83.42;100369.60;105624;1292;58943;-72
2022/12/16 03:57:17;;;;;;;27.60;15.80;;;;;;;-8.77;83.59;100369.34;105747;1293;59345;-73
2022/12/16 03:59:43;;;;;;;30.40;16.40;;;;;;;-8.75;83.82;100368.58;105745;1289;58881;-73
2022/12/16 04:02:10;;;;;;;27.20;15.30;;;;;;;-8.73;83.66;100368.48;105733;1288;59256;-73
2022/12/16 04:04:37;;;;;;;34.40;17.30;;;;;;;-8.72;84.03;100369.96;105722;1289;59253;-73
2022/12/16 04:07:23;;;;;;;27.20;15.50;;;;;;;-8.73;83.46;100371.91;105587;1288;59382;-73
2022/12/16 04:09:51;;;;;;;29.20;15.60;;;;;;;-8.76;83.35;100369.80;105625;1290;59384;-73
2022/12/16 04:26:13;;;;;;;26.60;15.60;;;;;;;-8.77;83.48;100377.20;105572;1282;72855;-72
2022/12/16 04:28:39;;;;;;;27.90;16.60;;;;;;;-8.78;83.22;100381.54;105626;1292;71109;-72
2022/12/16 04:31:06;;;;;;;27.60;15.70;;;;;;;-8.80;83.35;100379.52;105596;1292;60515;-72
